sensor_id;sensor_type;location;lat;lon;timestamp;P1;durP1;ratioP1;P2;durP2;ratioP2
43527;SDS011;52359;42.658;23.320;2023-07-02T00:00:42;16.85;;;8.95;;
43527;SDS011;52359;42.658;23.320;2023-07-02T00:03:08;15.50;;;8.38;;
43527;SDS011;52359;42.658;23.320;2023-07-02T00:05:35;10.45;;;6.93;;
43527;SDS011;52359;42.658;23.320;2023-07-02T00:08:02;13.85;;;7.65;;
43527;SDS011;52359;42.658;23.320;2023-07-02T00:10:28;15.30;;;7.15;;
43527;SDS011;52359;42.658;23.320;2023-07-02T00:12:54;15.00;;;7.68;;
43527;SDS011;52359;42.658;23.320;2023-07-02T00:15:20;18.77;;;7.57;;
43527;SDS011;52359;42.658;23.320;2023-07-02T00:17:46;13.30;;;7.70;;
43527;SDS011;52359;42.658;23.320;2023-07-02T00:20:12;13.65;;;8.43;;
43527;SDS011;52359;42.658;23.320;2023-07-02T00:22:39;13.85;;;7.53;;
43527;SDS011;52359;42.658;23.320;2023-07-02T00:25:09;15.95;;;7.88;;
43527;SDS011;52359;42.658;23.320;2023-07-02T00:27:35;13.27;;;7.38;;
43527;SDS011;52359;42.658;23.320;2023-07-02T00:30:03;17.05;;;8.82;;
43527;SDS011;52359;42.658;23.320;2023-07-02T00:32:29;20.38;;;8.10;;
43527;SDS011;52359;42.658;23.320;2023-07-02T00:34:55;16.35;;;7.80;;
43527;SDS011;52359;42.658;23.320;2023-07-02T00:37:21;10.68;;;7.35;;
43527;SDS011;52359;42.658;23.320;2023-07-02T00:39:47;20.48;;;8.73;;
43527;SDS011;52359;42.658;23.320;2023-07-02T00:42:13;12.65;;;7.15;;
43527;SDS011;52359;42.658;23.320;2023-07-02T00:44:39;17.00;;;7.97;;
43527;SDS011;52359;42.658;23.320;2023-07-02T00:47:07;11.85;;;7.35;;
43527;SDS011;52359;42.658;23.320;2023-07-02T00:49:33;18.92;;;8.85;;
43527;SDS011;52359;42.658;23.320;2023-07-02T00:51:59;12.63;;;7.70;;
43527;SDS011;52359;42.658;23.320;2023-07-02T00:54:29;16.77;;;9.18;;
43527;SDS011;52359;42.658;23.320;2023-07-02T00:56:55;12.70;;;8.23;;
43527;SDS011;52359;42.658;23.320;2023-07-02T00:59:21;15.00;;;7.82;;
43527;SDS011;52359;42.658;23.320;2023-07-02T01:01:48;12.60;;;7.75;;
43527;SDS011;52359;42.658;23.320;2023-07-02T01:04:16;15.85;;;7.65;;
43527;SDS011;52359;42.658;23.320;2023-07-02T01:06:43;11.85;;;7.78;;
43527;SDS011;52359;42.658;23.320;2023-07-02T01:09:09;13.43;;;8.07;;
43527;SDS011;52359;42.658;23.320;2023-07-02T01:11:43;14.85;;;8.68;;
43527;SDS011;52359;42.658;23.320;2023-07-02T01:16:35;17.08;;;8.43;;
43527;SDS011;52359;42.658;23.320;2023-07-02T01:19:02;13.15;;;7.63;;
43527;SDS011;52359;42.658;23.320;2023-07-02T01:21:30;14.85;;;7.68;;
43527;SDS011;52359;42.658;23.320;2023-07-02T01:23:57;14.52;;;8.20;;
43527;SDS011;52359;42.658;23.320;2023-07-02T01:26:27;16.90;;;7.47;;
43527;SDS011;52359;42.658;23.320;2023-07-02T01:28:53;11.00;;;7.38;;
43527;SDS011;52359;42.658;23.320;2023-07-02T01:31:19;13.02;;;7.78;;
43527;SDS011;52359;42.658;23.320;2023-07-02T01:33:49;13.07;;;7.88;;
43527;SDS011;52359;42.658;23.320;2023-07-02T01:36:15;18.60;;;9.18;;
43527;SDS011;52359;42.658;23.320;2023-07-02T01:38:41;13.10;;;7.88;;
43527;SDS011;52359;42.658;23.320;2023-07-02T01:41:07;13.60;;;8.27;;
43527;SDS011;52359;42.658;23.320;2023-07-02T01:43:33;18.45;;;8.15;;
43527;SDS011;52359;42.658;23.320;2023-07-02T01:45:59;12.38;;;7.45;;
43527;SDS011;52359;42.658;23.320;2023-07-02T01:48:26;16.85;;;8.18;;
43527;SDS011;52359;42.658;23.320;2023-07-02T01:50:53;19.45;;;8.25;;
43527;SDS011;52359;42.658;23.320;2023-07-02T01:53:19;18.67;;;10.27;;
43527;SDS011;52359;42.658;23.320;2023-07-02T01:58:29;13.65;;;8.73;;
43527;SDS011;52359;42.658;23.320;2023-07-02T02:00:55;12.82;;;8.48;;
43527;SDS011;52359;42.658;23.320;2023-07-02T02:03:22;15.18;;;9.25;;
43527;SDS011;52359;42.658;23.320;2023-07-02T02:05:50;16.48;;;8.07;;
43527;SDS011;52359;42.658;23.320;2023-07-02T02:08:16;17.40;;;9.07;;
43527;SDS011;52359;42.658;23.320;2023-07-02T02:10:42;15.15;;;8.52;;
43527;SDS011;52359;42.658;23.320;2023-07-02T02:13:08;11.73;;;8.20;;
43527;SDS011;52359;42.658;23.320;2023-07-02T02:15:34;14.30;;;8.88;;
43527;SDS011;52359;42.658;23.320;2023-07-02T02:18:00;13.45;;;8.15;;
43527;SDS011;52359;42.658;23.320;2023-07-02T02:20:26;15.18;;;8.65;;
43527;SDS011;52359;42.658;23.320;2023-07-02T02:22:52;17.17;;;10.43;;
43527;SDS011;52359;42.658;23.320;2023-07-02T02:25:18;14.93;;;9.15;;
43527;SDS011;52359;42.658;23.320;2023-07-02T02:27:44;15.13;;;9.25;;
43527;SDS011;52359;42.658;23.320;2023-07-02T02:30:10;16.83;;;9.93;;
43527;SDS011;52359;42.658;23.320;2023-07-02T02:32:36;14.23;;;8.90;;
43527;SDS011;52359;42.658;23.320;2023-07-02T02:35:02;14.27;;;10.02;;
43527;SDS011;52359;42.658;23.320;2023-07-02T02:37:28;13.27;;;8.32;;
43527;SDS011;52359;42.658;23.320;2023-07-02T02:39:55;13.60;;;8.80;;
43527;SDS011;52359;42.658;23.320;2023-07-02T02:42:22;15.55;;;10.25;;
43527;SDS011;52359;42.658;23.320;2023-07-02T02:44:48;15.98;;;9.38;;
43527;SDS011;52359;42.658;23.320;2023-07-02T02:47:14;17.00;;;9.68;;
43527;SDS011;52359;42.658;23.320;2023-07-02T02:49:40;17.38;;;10.38;;
43527;SDS011;52359;42.658;23.320;2023-07-02T02:52:07;18.83;;;9.50;;
43527;SDS011;52359;42.658;23.320;2023-07-02T02:54:33;18.55;;;9.75;;
43527;SDS011;52359;42.658;23.320;2023-07-02T02:56:59;13.30;;;9.15;;
43527;SDS011;52359;42.658;23.320;2023-07-02T02:59:25;12.82;;;9.32;;
43527;SDS011;52359;42.658;23.320;2023-07-02T03:01:51;19.38;;;9.25;;
43527;SDS011;52359;42.658;23.320;2023-07-02T03:04:17;18.15;;;9.48;;
43527;SDS011;52359;42.658;23.320;2023-07-02T03:06:43;17.45;;;9.32;;
43527;SDS011;52359;42.658;23.320;2023-07-02T03:09:09;12.95;;;8.70;;
43527;SDS011;52359;42.658;23.320;2023-07-02T03:11:35;16.88;;;9.20;;
43527;SDS011;52359;42.658;23.320;2023-07-02T03:14:01;14.38;;;8.77;;
43527;SDS011;52359;42.658;23.320;2023-07-02T03:16:27;19.02;;;9.68;;
43527;SDS011;52359;42.658;23.320;2023-07-02T03:18:53;19.13;;;8.77;;
43527;SDS011;52359;42.658;23.320;2023-07-02T03:21:19;18.52;;;9.18;;
43527;SDS011;52359;42.658;23.320;2023-07-02T03:23:45;17.33;;;10.18;;
43527;SDS011;52359;42.658;23.320;2023-07-02T03:26:11;19.60;;;9.13;;
43527;SDS011;52359;42.658;23.320;2023-07-02T03:28:37;23.48;;;9.57;;
43527;SDS011;52359;42.658;23.320;2023-07-02T03:31:03;15.13;;;8.68;;
43527;SDS011;52359;42.658;23.320;2023-07-02T03:33:29;20.10;;;10.25;;
43527;SDS011;52359;42.658;23.320;2023-07-02T03:35:55;14.40;;;9.05;;
43527;SDS011;52359;42.658;23.320;2023-07-02T03:38:21;14.15;;;7.90;;
43527;SDS011;52359;42.658;23.320;2023-07-02T03:40:47;17.92;;;9.05;;
43527;SDS011;52359;42.658;23.320;2023-07-02T03:43:13;14.57;;;9.27;;
43527;SDS011;52359;42.658;23.320;2023-07-02T03:45:39;17.13;;;8.88;;
43527;SDS011;52359;42.658;23.320;2023-07-02T03:48:05;15.73;;;8.82;;
43527;SDS011;52359;42.658;23.320;2023-07-02T03:50:32;12.75;;;8.82;;
43527;SDS011;52359;42.658;23.320;2023-07-02T03:52:57;14.30;;;8.38;;
43527;SDS011;52359;42.658;23.320;2023-07-02T03:55:24;20.00;;;9.07;;
43527;SDS011;52359;42.658;23.320;2023-07-02T03:57:50;18.00;;;9.10;;
43527;SDS011;52359;42.658;23.320;2023-07-02T04:00:16;11.35;;;8.38;;
43527;SDS011;52359;42.658;23.320;2023-07-02T04:02:42;18.13;;;9.23;;
43527;SDS011;52359;42.658;23.320;2023-07-02T04:05:08;18.73;;;8.68;;
43527;SDS011;52359;42.658;23.320;2023-07-02T04:07:34;16.02;;;8.73;;
43527;SDS011;52359;42.658;23.320;2023-07-02T04:10:00;21.67;;;10.05;;
43527;SDS011;52359;42.658;23.320;2023-07-02T04:12:26;19.42;;;9.63;;
43527;SDS011;52359;42.658;23.320;2023-07-02T04:14:53;19.40;;;8.45;;
43527;SDS011;52359;42.658;23.320;2023-07-02T04:17:19;16.08;;;8.55;;
43527;SDS011;52359;42.658;23.320;2023-07-02T04:19:45;21.77;;;8.18;;
43527;SDS011;52359;42.658;23.320;2023-07-02T04:22:11;21.08;;;8.75;;
43527;SDS011;52359;42.658;23.320;2023-07-02T04:24:37;19.17;;;8.18;;
43527;SDS011;52359;42.658;23.320;2023-07-02T04:27:03;11.88;;;8.05;;
43527;SDS011;52359;42.658;23.320;2023-07-02T04:29:29;12.63;;;7.72;;
43527;SDS011;52359;42.658;23.320;2023-07-02T04:31:55;15.48;;;8.25;;
43527;SDS011;52359;42.658;23.320;2023-07-02T04:34:21;11.48;;;7.43;;
43527;SDS011;52359;42.658;23.320;2023-07-02T04:36:47;11.82;;;7.65;;
43527;SDS011;52359;42.658;23.320;2023-07-02T04:39:13;13.20;;;8.68;;
43527;SDS011;52359;42.658;23.320;2023-07-02T04:41:39;14.15;;;8.13;;
43527;SDS011;52359;42.658;23.320;2023-07-02T04:44:05;18.70;;;8.77;;
43527;SDS011;52359;42.658;23.320;2023-07-02T04:46:31;18.48;;;8.65;;
43527;SDS011;52359;42.658;23.320;2023-07-02T04:48:57;18.98;;;8.57;;
43527;SDS011;52359;42.658;23.320;2023-07-02T04:51:23;18.73;;;9.27;;
43527;SDS011;52359;42.658;23.320;2023-07-02T04:53:49;23.05;;;9.75;;
43527;SDS011;52359;42.658;23.320;2023-07-02T04:56:15;21.58;;;8.77;;
43527;SDS011;52359;42.658;23.320;2023-07-02T04:58:41;15.15;;;8.25;;
43527;SDS011;52359;42.658;23.320;2023-07-02T05:01:07;15.32;;;8.20;;
43527;SDS011;52359;42.658;23.320;2023-07-02T05:03:36;14.52;;;8.13;;
43527;SDS011;52359;42.658;23.320;2023-07-02T05:06:03;15.80;;;8.30;;
43527;SDS011;52359;42.658;23.320;2023-07-02T05:08:29;22.63;;;8.77;;
43527;SDS011;52359;42.658;23.320;2023-07-02T05:10:55;19.10;;;10.95;;
43527;SDS011;52359;42.658;23.320;2023-07-02T05:13:21;23.33;;;12.57;;
43527;SDS011;52359;42.658;23.320;2023-07-02T05:15:47;24.52;;;13.68;;
43527;SDS011;52359;42.658;23.320;2023-07-02T05:18:14;25.48;;;14.27;;
43527;SDS011;52359;42.658;23.320;2023-07-02T05:20:39;20.58;;;13.45;;
43527;SDS011;52359;42.658;23.320;2023-07-02T05:23:06;22.35;;;13.77;;
43527;SDS011;52359;42.658;23.320;2023-07-02T05:25:31;22.65;;;12.70;;
43527;SDS011;52359;42.658;23.320;2023-07-02T05:27:58;22.80;;;13.20;;
43527;SDS011;52359;42.658;23.320;2023-07-02T05:30:24;28.33;;;12.77;;
43527;SDS011;52359;42.658;23.320;2023-07-02T05:32:50;19.45;;;11.35;;
43527;SDS011;52359;42.658;23.320;2023-07-02T05:35:16;21.35;;;11.82;;
43527;SDS011;52359;42.658;23.320;2023-07-02T05:37:42;22.60;;;11.40;;
43527;SDS011;52359;42.658;23.320;2023-07-02T05:40:10;17.27;;;11.15;;
43527;SDS011;52359;42.658;23.320;2023-07-02T05:42:36;17.73;;;9.90;;
43527;SDS011;52359;42.658;23.320;2023-07-02T05:45:03;20.35;;;11.13;;
43527;SDS011;52359;42.658;23.320;2023-07-02T05:47:29;22.60;;;11.07;;
43527;SDS011;52359;42.658;23.320;2023-07-02T05:49:55;20.98;;;10.27;;
43527;SDS011;52359;42.658;23.320;2023-07-02T05:52:20;17.02;;;10.35;;
43527;SDS011;52359;42.658;23.320;2023-07-02T05:54:47;22.38;;;10.73;;
43527;SDS011;52359;42.658;23.320;2023-07-02T05:57:13;22.42;;;11.13;;
43527;SDS011;52359;42.658;23.320;2023-07-02T05:59:39;21.50;;;11.35;;
43527;SDS011;52359;42.658;23.320;2023-07-02T06:02:05;18.83;;;10.80;;
43527;SDS011;52359;42.658;23.320;2023-07-02T06:04:31;26.70;;;10.98;;
43527;SDS011;52359;42.658;23.320;2023-07-02T06:06:57;21.42;;;11.68;;
43527;SDS011;52359;42.658;23.320;2023-07-02T06:09:23;20.13;;;11.15;;
43527;SDS011;52359;42.658;23.320;2023-07-02T06:11:49;17.35;;;11.05;;
43527;SDS011;52359;42.658;23.320;2023-07-02T06:14:15;22.02;;;11.20;;
43527;SDS011;52359;42.658;23.320;2023-07-02T06:16:41;22.83;;;11.70;;
43527;SDS011;52359;42.658;23.320;2023-07-02T06:19:07;26.73;;;10.52;;
43527;SDS011;52359;42.658;23.320;2023-07-02T06:21:33;18.08;;;10.70;;
43527;SDS011;52359;42.658;23.320;2023-07-02T06:24:00;18.25;;;10.32;;
43527;SDS011;52359;42.658;23.320;2023-07-02T06:26:27;20.73;;;10.10;;
43527;SDS011;52359;42.658;23.320;2023-07-02T06:28:53;19.73;;;10.15;;
43527;SDS011;52359;42.658;23.320;2023-07-02T06:31:19;21.48;;;10.43;;
43527;SDS011;52359;42.658;23.320;2023-07-02T06:33:45;16.15;;;8.65;;
43527;SDS011;52359;42.658;23.320;2023-07-02T06:36:11;18.10;;;10.35;;
43527;SDS011;52359;42.658;23.320;2023-07-02T06:38:38;22.17;;;11.13;;
43527;SDS011;52359;42.658;23.320;2023-07-02T06:41:04;19.60;;;9.88;;
43527;SDS011;52359;42.658;23.320;2023-07-02T06:43:30;20.70;;;10.50;;
43527;SDS011;52359;42.658;23.320;2023-07-02T06:45:56;15.15;;;9.13;;
43527;SDS011;52359;42.658;23.320;2023-07-02T06:48:22;16.33;;;9.65;;
43527;SDS011;52359;42.658;23.320;2023-07-02T06:50:48;21.60;;;9.98;;
43527;SDS011;52359;42.658;23.320;2023-07-02T06:53:14;17.70;;;10.13;;
43527;SDS011;52359;42.658;23.320;2023-07-02T06:55:40;15.13;;;10.27;;
43527;SDS011;52359;42.658;23.320;2023-07-02T06:58:07;13.00;;;9.13;;
43527;SDS011;52359;42.658;23.320;2023-07-02T07:00:33;24.95;;;10.25;;
43527;SDS011;52359;42.658;23.320;2023-07-02T07:03:02;19.48;;;10.73;;
43527;SDS011;52359;42.658;23.320;2023-07-02T07:05:31;15.43;;;9.00;;
43527;SDS011;52359;42.658;23.320;2023-07-02T07:07:57;22.80;;;11.50;;
43527;SDS011;52359;42.658;23.320;2023-07-02T07:10:23;19.42;;;10.57;;
43527;SDS011;52359;42.658;23.320;2023-07-02T07:12:49;21.70;;;10.02;;
43527;SDS011;52359;42.658;23.320;2023-07-02T07:15:15;16.48;;;9.70;;
43527;SDS011;52359;42.658;23.320;2023-07-02T07:17:41;17.40;;;10.77;;
43527;SDS011;52359;42.658;23.320;2023-07-02T07:20:07;14.80;;;9.82;;
43527;SDS011;52359;42.658;23.320;2023-07-02T07:22:33;25.38;;;10.43;;
43527;SDS011;52359;42.658;23.320;2023-07-02T07:25:00;17.05;;;9.60;;
43527;SDS011;52359;42.658;23.320;2023-07-02T07:27:26;17.00;;;10.05;;
43527;SDS011;52359;42.658;23.320;2023-07-02T07:29:51;17.20;;;10.07;;
43527;SDS011;52359;42.658;23.320;2023-07-02T07:32:17;17.60;;;9.35;;
43527;SDS011;52359;42.658;23.320;2023-07-02T07:34:43;15.27;;;9.63;;
43527;SDS011;52359;42.658;23.320;2023-07-02T07:37:09;16.77;;;9.20;;
43527;SDS011;52359;42.658;23.320;2023-07-02T07:39:35;20.67;;;9.30;;
43527;SDS011;52359;42.658;23.320;2023-07-02T07:42:02;14.45;;;9.02;;
43527;SDS011;52359;42.658;23.320;2023-07-02T07:44:28;13.95;;;8.48;;
43527;SDS011;52359;42.658;23.320;2023-07-02T07:46:57;12.27;;;8.32;;
43527;SDS011;52359;42.658;23.320;2023-07-02T07:49:23;15.20;;;8.20;;
43527;SDS011;52359;42.658;23.320;2023-07-02T07:51:49;15.68;;;8.18;;
43527;SDS011;52359;42.658;23.320;2023-07-02T07:54:15;13.23;;;8.02;;
43527;SDS011;52359;42.658;23.320;2023-07-02T07:56:41;13.98;;;8.30;;
43527;SDS011;52359;42.658;23.320;2023-07-02T07:59:07;11.88;;;7.22;;
43527;SDS011;52359;42.658;23.320;2023-07-02T08:01:33;12.55;;;7.53;;
43527;SDS011;52359;42.658;23.320;2023-07-02T08:03:59;13.18;;;7.85;;
43527;SDS011;52359;42.658;23.320;2023-07-02T08:06:25;14.48;;;8.02;;
43527;SDS011;52359;42.658;23.320;2023-07-02T08:08:52;14.15;;;8.52;;
43527;SDS011;52359;42.658;23.320;2023-07-02T08:11:18;12.75;;;7.50;;
43527;SDS011;52359;42.658;23.320;2023-07-02T08:13:44;18.38;;;8.32;;
43527;SDS011;52359;42.658;23.320;2023-07-02T08:16:10;18.88;;;9.73;;
43527;SDS011;52359;42.658;23.320;2023-07-02T08:18:36;12.85;;;8.27;;
43527;SDS011;52359;42.658;23.320;2023-07-02T08:21:02;12.48;;;7.90;;
43527;SDS011;52359;42.658;23.320;2023-07-02T08:23:31;11.73;;;7.90;;
43527;SDS011;52359;42.658;23.320;2023-07-02T08:25:57;11.98;;;7.82;;
43527;SDS011;52359;42.658;23.320;2023-07-02T08:28:23;14.02;;;7.43;;
43527;SDS011;52359;42.658;23.320;2023-07-02T08:30:49;17.02;;;7.88;;
43527;SDS011;52359;42.658;23.320;2023-07-02T08:33:15;14.15;;;7.60;;
43527;SDS011;52359;42.658;23.320;2023-07-02T08:35:41;12.35;;;7.97;;
43527;SDS011;52359;42.658;23.320;2023-07-02T08:38:07;14.77;;;8.57;;
43527;SDS011;52359;42.658;23.320;2023-07-02T08:40:33;11.73;;;7.10;;
43527;SDS011;52359;42.658;23.320;2023-07-02T08:42:59;14.60;;;7.65;;
43527;SDS011;52359;42.658;23.320;2023-07-02T08:45:24;13.32;;;7.35;;
43527;SDS011;52359;42.658;23.320;2023-07-02T08:47:50;10.13;;;6.63;;
43527;SDS011;52359;42.658;23.320;2023-07-02T08:50:20;12.70;;;7.00;;
43527;SDS011;52359;42.658;23.320;2023-07-02T08:52:45;10.93;;;7.47;;
43527;SDS011;52359;42.658;23.320;2023-07-02T08:55:11;11.68;;;6.95;;
43527;SDS011;52359;42.658;23.320;2023-07-02T08:57:37;11.13;;;7.40;;
43527;SDS011;52359;42.658;23.320;2023-07-02T09:00:05;14.82;;;8.07;;
43527;SDS011;52359;42.658;23.320;2023-07-02T09:02:35;11.60;;;7.85;;
43527;SDS011;52359;42.658;23.320;2023-07-02T09:05:01;10.98;;;7.28;;
43527;SDS011;52359;42.658;23.320;2023-07-02T09:07:27;13.35;;;7.07;;
43527;SDS011;52359;42.658;23.320;2023-07-02T09:09:53;11.35;;;7.82;;
43527;SDS011;52359;42.658;23.320;2023-07-02T09:14:53;14.93;;;6.60;;
43527;SDS011;52359;42.658;23.320;2023-07-02T09:17:26;9.00;;;7.13;;
43527;SDS011;52359;42.658;23.320;2023-07-02T09:19:57;9.30;;;7.03;;
43527;SDS011;52359;42.658;23.320;2023-07-02T09:22:25;8.45;;;6.30;;
43527;SDS011;52359;42.658;23.320;2023-07-02T09:24:52;9.55;;;6.80;;
43527;SDS011;52359;42.658;23.320;2023-07-02T09:27:19;16.02;;;6.63;;
43527;SDS011;52359;42.658;23.320;2023-07-02T09:29:49;10.60;;;6.82;;
43527;SDS011;52359;42.658;23.320;2023-07-02T09:32:23;11.13;;;6.57;;
43527;SDS011;52359;42.658;23.320;2023-07-02T09:34:51;8.05;;;6.05;;
43527;SDS011;52359;42.658;23.320;2023-07-02T09:37:18;9.77;;;6.45;;
43527;SDS011;52359;42.658;23.320;2023-07-02T09:39:44;12.45;;;7.07;;
43527;SDS011;52359;42.658;23.320;2023-07-02T09:42:14;9.05;;;6.13;;
43527;SDS011;52359;42.658;23.320;2023-07-02T09:44:41;12.93;;;6.13;;
43527;SDS011;52359;42.658;23.320;2023-07-02T09:47:08;8.10;;;6.32;;
43527;SDS011;52359;42.658;23.320;2023-07-02T09:49:38;7.63;;;6.35;;
43527;SDS011;52359;42.658;23.320;2023-07-02T09:52:05;11.85;;;6.75;;
43527;SDS011;52359;42.658;23.320;2023-07-02T09:54:32;9.38;;;6.38;;
43527;SDS011;52359;42.658;23.320;2023-07-02T09:56:58;10.85;;;6.32;;
43527;SDS011;52359;42.658;23.320;2023-07-02T09:59:24;9.85;;;6.20;;
43527;SDS011;52359;42.658;23.320;2023-07-02T10:01:51;9.30;;;6.47;;
43527;SDS011;52359;42.658;23.320;2023-07-02T10:04:18;7.93;;;5.43;;
43527;SDS011;52359;42.658;23.320;2023-07-02T10:06:51;9.88;;;6.07;;
43527;SDS011;52359;42.658;23.320;2023-07-02T10:09:17;10.25;;;6.35;;
43527;SDS011;52359;42.658;23.320;2023-07-02T10:11:44;12.13;;;6.53;;
43527;SDS011;52359;42.658;23.320;2023-07-02T10:14:10;10.50;;;6.57;;
43527;SDS011;52359;42.658;23.320;2023-07-02T10:16:49;9.25;;;6.10;;
43527;SDS011;52359;42.658;23.320;2023-07-02T10:19:14;10.10;;;5.60;;
43527;SDS011;52359;42.658;23.320;2023-07-02T10:21:40;12.07;;;6.95;;
43527;SDS011;52359;42.658;23.320;2023-07-02T10:24:24;12.07;;;6.57;;
43527;SDS011;52359;42.658;23.320;2023-07-02T10:29:23;7.85;;;6.55;;
43527;SDS011;52359;42.658;23.320;2023-07-02T10:31:50;9.75;;;6.80;;
43527;SDS011;52359;42.658;23.320;2023-07-02T10:34:33;9.32;;;6.00;;
43527;SDS011;52359;42.658;23.320;2023-07-02T10:37:00;8.65;;;6.57;;
43527;SDS011;52359;42.658;23.320;2023-07-02T10:39:27;9.20;;;5.75;;
43527;SDS011;52359;42.658;23.320;2023-07-02T10:42:03;8.60;;;5.90;;
43527;SDS011;52359;42.658;23.320;2023-07-02T10:44:33;9.65;;;5.90;;
43527;SDS011;52359;42.658;23.320;2023-07-02T10:46:59;9.13;;;5.25;;
43527;SDS011;52359;42.658;23.320;2023-07-02T10:49:31;7.97;;;5.32;;
43527;SDS011;52359;42.658;23.320;2023-07-02T10:52:01;8.88;;;5.93;;
43527;SDS011;52359;42.658;23.320;2023-07-02T10:55:05;8.27;;;5.10;;
43527;SDS011;52359;42.658;23.320;2023-07-02T10:57:24;5.35;;;4.63;;
43527;SDS011;52359;42.658;23.320;2023-07-02T10:59:50;7.13;;;5.32;;
43527;SDS011;52359;42.658;23.320;2023-07-02T11:02:17;8.13;;;5.38;;
43527;SDS011;52359;42.658;23.320;2023-07-02T11:04:43;7.85;;;5.90;;
43527;SDS011;52359;42.658;23.320;2023-07-02T11:07:09;9.73;;;5.60;;
43527;SDS011;52359;42.658;23.320;2023-07-02T11:09:36;8.88;;;5.82;;
43527;SDS011;52359;42.658;23.320;2023-07-02T11:12:02;7.47;;;5.53;;
43527;SDS011;52359;42.658;23.320;2023-07-02T11:14:37;9.73;;;5.68;;
43527;SDS011;52359;42.658;23.320;2023-07-02T11:17:05;10.50;;;6.25;;
43527;SDS011;52359;42.658;23.320;2023-07-02T11:19:35;7.03;;;6.03;;
43527;SDS011;52359;42.658;23.320;2023-07-02T11:22:01;6.32;;;5.60;;
43527;SDS011;52359;42.658;23.320;2023-07-02T11:26:57;7.80;;;6.20;;
43527;SDS011;52359;42.658;23.320;2023-07-02T11:29:24;8.30;;;5.60;;
43527;SDS011;52359;42.658;23.320;2023-07-02T11:31:50;7.53;;;5.88;;
43527;SDS011;52359;42.658;23.320;2023-07-02T11:34:20;9.95;;;6.07;;
43527;SDS011;52359;42.658;23.320;2023-07-02T11:36:46;7.90;;;5.32;;
43527;SDS011;52359;42.658;23.320;2023-07-02T11:39:13;9.13;;;5.32;;
43527;SDS011;52359;42.658;23.320;2023-07-02T11:41:41;7.35;;;5.95;;
43527;SDS011;52359;42.658;23.320;2023-07-02T11:44:07;9.75;;;5.60;;
43527;SDS011;52359;42.658;23.320;2023-07-02T11:46:33;8.65;;;5.20;;
43527;SDS011;52359;42.658;23.320;2023-07-02T11:49:00;9.85;;;5.30;;
43527;SDS011;52359;42.658;23.320;2023-07-02T11:51:26;17.70;;;7.03;;
43527;SDS011;52359;42.658;23.320;2023-07-02T11:53:51;11.60;;;6.13;;
43527;SDS011;52359;42.658;23.320;2023-07-02T11:56:17;14.27;;;5.53;;
43527;SDS011;52359;42.658;23.320;2023-07-02T11:58:43;7.80;;;5.88;;
43527;SDS011;52359;42.658;23.320;2023-07-02T12:01:09;5.35;;;4.85;;
43527;SDS011;52359;42.658;23.320;2023-07-02T12:03:35;5.82;;;4.60;;
43527;SDS011;52359;42.658;23.320;2023-07-02T12:06:01;4.43;;;4.03;;
43527;SDS011;52359;42.658;23.320;2023-07-02T12:08:28;5.05;;;4.57;;
43527;SDS011;52359;42.658;23.320;2023-07-02T12:10:54;6.05;;;4.93;;
43527;SDS011;52359;42.658;23.320;2023-07-02T12:13:20;5.70;;;4.18;;
43527;SDS011;52359;42.658;23.320;2023-07-02T12:15:46;5.72;;;4.30;;
43527;SDS011;52359;42.658;23.320;2023-07-02T12:18:12;4.80;;;4.40;;
43527;SDS011;52359;42.658;23.320;2023-07-02T12:20:39;7.28;;;4.70;;
43527;SDS011;52359;42.658;23.320;2023-07-02T12:23:05;6.15;;;4.63;;
43527;SDS011;52359;42.658;23.320;2023-07-02T12:25:31;7.07;;;5.32;;
43527;SDS011;52359;42.658;23.320;2023-07-02T12:27:57;11.90;;;8.68;;
43527;SDS011;52359;42.658;23.320;2023-07-02T12:30:23;12.77;;;7.75;;
43527;SDS011;52359;42.658;23.320;2023-07-02T12:32:49;9.20;;;6.72;;
43527;SDS011;52359;42.658;23.320;2023-07-02T12:35:15;11.57;;;6.85;;
43527;SDS011;52359;42.658;23.320;2023-07-02T12:37:48;11.90;;;6.97;;
43527;SDS011;52359;42.658;23.320;2023-07-02T12:40:15;8.63;;;6.75;;
43527;SDS011;52359;42.658;23.320;2023-07-02T12:42:41;15.18;;;7.88;;
43527;SDS011;52359;42.658;23.320;2023-07-02T12:45:08;12.48;;;7.68;;
43527;SDS011;52359;42.658;23.320;2023-07-02T12:47:34;11.82;;;7.18;;
43527;SDS011;52359;42.658;23.320;2023-07-02T12:50:02;31.08;;;8.98;;
43527;SDS011;52359;42.658;23.320;2023-07-02T12:52:28;9.45;;;6.13;;
43527;SDS011;52359;42.658;23.320;2023-07-02T12:54:54;8.90;;;6.57;;
43527;SDS011;52359;42.658;23.320;2023-07-02T12:57:20;9.60;;;6.43;;
43527;SDS011;52359;42.658;23.320;2023-07-02T12:59:46;9.13;;;6.50;;
43527;SDS011;52359;42.658;23.320;2023-07-02T13:02:12;9.55;;;5.95;;
43527;SDS011;52359;42.658;23.320;2023-07-02T13:04:38;8.35;;;6.18;;
43527;SDS011;52359;42.658;23.320;2023-07-02T13:07:05;10.90;;;6.95;;
43527;SDS011;52359;42.658;23.320;2023-07-02T13:09:31;7.15;;;5.90;;
43527;SDS011;52359;42.658;23.320;2023-07-02T13:11:57;8.35;;;5.72;;
43527;SDS011;52359;42.658;23.320;2023-07-02T13:14:23;7.68;;;6.25;;
43527;SDS011;52359;42.658;23.320;2023-07-02T13:16:49;5.97;;;5.38;;
43527;SDS011;52359;42.658;23.320;2023-07-02T13:19:15;6.53;;;5.80;;
43527;SDS011;52359;42.658;23.320;2023-07-02T13:21:41;8.50;;;5.97;;
43527;SDS011;52359;42.658;23.320;2023-07-02T13:24:07;6.60;;;5.15;;
43527;SDS011;52359;42.658;23.320;2023-07-02T13:26:33;7.53;;;5.95;;
43527;SDS011;52359;42.658;23.320;2023-07-02T13:28:59;8.57;;;5.65;;
43527;SDS011;52359;42.658;23.320;2023-07-02T13:31:25;10.70;;;5.75;;
43527;SDS011;52359;42.658;23.320;2023-07-02T13:33:51;7.28;;;6.18;;
43527;SDS011;52359;42.658;23.320;2023-07-02T13:36:17;10.23;;;5.90;;
43527;SDS011;52359;42.658;23.320;2023-07-02T13:38:43;10.77;;;6.32;;
43527;SDS011;52359;42.658;23.320;2023-07-02T13:41:09;8.13;;;6.18;;
43527;SDS011;52359;42.658;23.320;2023-07-02T13:43:37;10.02;;;6.28;;
43527;SDS011;52359;42.658;23.320;2023-07-02T13:46:04;7.55;;;6.10;;
43527;SDS011;52359;42.658;23.320;2023-07-02T13:48:29;14.77;;;6.07;;
43527;SDS011;52359;42.658;23.320;2023-07-02T13:50:55;6.68;;;5.97;;
43527;SDS011;52359;42.658;23.320;2023-07-02T13:53:21;10.13;;;5.82;;
43527;SDS011;52359;42.658;23.320;2023-07-02T13:55:46;12.43;;;6.68;;
43527;SDS011;52359;42.658;23.320;2023-07-02T13:58:12;7.30;;;6.20;;
43527;SDS011;52359;42.658;23.320;2023-07-02T14:00:38;11.48;;;6.13;;
43527;SDS011;52359;42.658;23.320;2023-07-02T14:03:05;7.38;;;6.32;;
43527;SDS011;52359;42.658;23.320;2023-07-02T14:05:31;7.90;;;6.43;;
43527;SDS011;52359;42.658;23.320;2023-07-02T14:07:57;9.20;;;5.85;;
43527;SDS011;52359;42.658;23.320;2023-07-02T14:10:23;10.98;;;6.45;;
43527;SDS011;52359;42.658;23.320;2023-07-02T14:12:49;9.07;;;6.60;;
43527;SDS011;52359;42.658;23.320;2023-07-02T14:15:14;7.95;;;6.72;;
43527;SDS011;52359;42.658;23.320;2023-07-02T14:17:40;7.93;;;6.45;;
43527;SDS011;52359;42.658;23.320;2023-07-02T14:20:08;11.77;;;6.60;;
43527;SDS011;52359;42.658;23.320;2023-07-02T14:22:34;13.90;;;6.85;;
43527;SDS011;52359;42.658;23.320;2023-07-02T14:25:00;9.82;;;7.10;;
43527;SDS011;52359;42.658;23.320;2023-07-02T14:27:26;11.25;;;7.20;;
43527;SDS011;52359;42.658;23.320;2023-07-02T14:29:52;10.80;;;7.78;;
43527;SDS011;52359;42.658;23.320;2023-07-02T14:32:18;9.07;;;7.22;;